Αρχική σελίδα
METAR-TAF:

METAR-TAF

Αεροδρόμια :

Ματζούρο, Νήσοι Μάρσαλ

γεωγραφικό πλάτος: 07-04N, γεωγραφικό μήκος: 171-17E, υψόμετρο: 2 μ

Παρών καιρός

Η αναφορά έγινε 5 ώρες και 49 λεπτά πριν, στις 23:51 UTC
Άνεμος 16 kt από Α/BA
Θερμοκρασία 30°C
Υγρασία 75%
Πίεση 1008 hPa
Ορατότητα: 24.1 χλμ
Λίγα νέφη σε ύψος 1500 πόδια
Διάσπαρτα νέφη σε ύψος 5000 πόδια
Αρκετά νέφη σε ύψος 12000 πόδια
Αρκετά νέφη σε ύψος 30000 πόδια

METAR: PKMJ 102351Z 06016KT 15SM FEW015 SCT050 BKN120 BKN300 30/25 A2976 RMK LAST

Χρόνος: 17:40 (05:40 UTC)

Πρόγνωση Καιρού

Η αναφορά έγινε 6 ώρες και 15 λεπτά πριν, στις 23:25 UTC
Η πρόγνωση ισχύει από τις 11 στις 00 UTC έως τις 11 στις 24 UTC
Άνεμος 16 kt από Α
Ορατότητα: 10 χλμ
Διάσπαρτα νέφη σε ύψος 1500 πόδια
Διάσπαρτα νέφη σε ύψος 5000 πόδια
Όμβροι σε κοντινή απόσταση

TAF: PKMJ 102325Z 1100/1124 08016KT P6SM VCSH SCT015 SCT050

Μετεωρολογικές αναφορές και προγνώσεις για περισσότερα από 4000 αεροδρόμια (δελτία METAR και TAF).

Οι διαθέσιμοι σταθμοί απεικονίζονται στο χάρτη με κίτρινες και κόκκινες κουκκίδες.

Μετακινήστε το ποντίκι πάνω από τις κουκκίδες για να δείτε το όνομα του σταθμού.

Στη συνέχεια, κάντε κλικ για να δείτε τις μετεωρολογικές αναφορές και τις προγνώσεις καιρού.

Για να αλλάξετε το χάρτη: κάντε κλικ στα πράσινα κουμπιά με τον μαύρο σταυρό για να ζουμάρετε, στο πράσινο κουμπί με την παύλα για να αφαιρέσετε το ζουμ ή στα πράσινα βέλη για να αντιπαραβάλλετε χάρτες.


METAR-TAF: